Flight Track Log - Related Links

Times and Time Zones

All times are in EDT time to prevent confusion due to time zone crossing. See the ASQ6151 flight status page for this flight to view local times or setup timezone preferences in your user account.

Time Position Orientation Groundspeed Altitude Reporting Facility
EDT Latitude Longitude Course Direction KTS MPH feet Rate Location/Type
Tue 01:16:46 AM 41.9500 -87.9500 270° West 191 220 2,800  Level Chicago TRACON
Tue 01:17:46 AM 41.9333 -88.0333 255° West 218 251 5,000 2,603 Climbing Chicago TRACON
Tue 01:19:02 AM 41.9150 -88.1256 255° West 221 254 8,700 2,803 Climbing Chicago Center
Tue 01:20:03 AM 41.9169 -88.2150 254° West 269 310 11,400 2,182 Climbing Chicago Center
Tue 01:21:03 AM 41.9506 -88.3075 296° West 283 326 13,100 843 Climbing Chicago Center
Tue 01:22:00 AM 41.9670 -88.3220 270° West  Level FlightAware Approximate
Tue 01:22:04 AM 41.9594 -88.4250 276° West 313 360 13,100  Level Chicago Center
Tue 01:23:04 AM 41.9681 -88.5531 275° West 340 391 13,000 -50 Descending Chicago Center
Tue 01:24:05 AM 41.9617 -88.6747 266° West 338 389 13,000  Level Chicago Center
Tue 01:25:05 AM 41.9178 -88.7733 239° Southwest 312 359 13,000  Level Chicago Center
Tue 01:26:06 AM 41.8736 -88.8756 240° Southwest 316 364 13,000  Level Chicago Center
Tue 01:27:06 AM 41.8267 -88.9844 240° Southwest 334 384 13,000  Level Chicago Center
Tue 01:28:07 AM 41.7728 -89.1092 240° Southwest 328 377 13,000  Level Chicago Center
Tue 01:29:07 AM 41.7042 -89.1839 219° Southwest 331 381 13,000 -50 Level Chicago Center
Tue 01:30:07 AM 41.6197 -89.2272 201° Southwest 331 381 12,900 -545 Descending Chicago Center
Tue 01:31:08 AM 41.5503 -89.2606 200° South 278 320 11,900 -992 Descending Chicago Center
Tue 01:32:08 AM 41.4728 -89.2986 200° South 284 327 10,900 -942 Descending Chicago Center
Tue 01:33:09 AM 41.3989 -89.3361 201° Southwest 284 327 10,000 -446 Descending Chicago Center
Tue 01:34:09 AM 41.3186 -89.3761 201° Southwest 304 350 10,000  Level Chicago Center
Tue 01:35:10 AM 41.2347 -89.4139 199° South 318 366 10,000 -397 Level Chicago Center
Tue 01:36:10 AM 41.1669 -89.4483 201° Southwest 270 311 9,200 -893 Descending Chicago Center
Tue 01:37:11 AM 41.0989 -89.4825 201° Southwest 264 304 8,200 -1,041 Descending Chicago Center
Tue 01:38:11 AM 41.0331 -89.5144 200° South 255 293 7,100 -1,050 Descending Chicago Center
Tue 01:39:11 AM 40.9697 -89.5378 196° South 242 278 6,100 -942 Descending Chicago Center
Tue 01:40:12 AM 40.9081 -89.5564 193° South 231 266 5,200 -893 Descending Chicago Center
Tue 01:41:12 AM 40.8439 -89.5769 194° South 233 268 4,300 -843 Descending Chicago Center
Tue 01:42:13 AM 40.7917 -89.5919 192° South 200 230 3,500 -843 Descending Chicago Center
Tue 01:43:13 AM 40.7469 -89.6069 194° South 173 199 2,600 -850 Descending Chicago Center
Tue 01:44:13 AM 40.7203 -89.6242 206° Southwest 123 142 1,800 -645 Descending Chicago Center
Tue 01:45:14 AM 40.6964 -89.6489 226° Southwest 111 128 1,300 -492 Descending Chicago Center

Login

Don't have an account? Register now (free) for customized features, flight alerts, and more!